sensor_id;sensor_type;location;lat;lon;timestamp;temperature;humidity
12123;DHT22;6125;59.628;17.852;2023-02-08T00:01:11;3.40;99.90
12123;DHT22;6125;59.628;17.852;2023-02-08T00:03:45;3.30;99.90
12123;DHT22;6125;59.628;17.852;2023-02-08T00:06:15;3.30;99.90
12123;DHT22;6125;59.628;17.852;2023-02-08T00:08:42;3.30;99.90
12123;DHT22;6125;59.628;17.852;2023-02-08T00:11:09;3.30;99.90
12123;DHT22;6125;59.628;17.852;2023-02-08T00:13:37;3.30;99.90
12123;DHT22;6125;59.628;17.852;2023-02-08T00:16:06;3.30;99.90
12123;DHT22;6125;59.628;17.852;2023-02-08T00:18:33;3.30;99.90
12123;DHT22;6125;59.628;17.852;2023-02-08T00:21:08;3.30;99.90
12123;DHT22;6125;59.628;17.852;2023-02-08T00:23:37;3.30;99.90
12123;DHT22;6125;59.628;17.852;2023-02-08T00:26:07;3.20;99.90
12123;DHT22;6125;59.628;17.852;2023-02-08T00:28:36;3.30;99.90
12123;DHT22;6125;59.628;17.852;2023-02-08T00:31:03;3.20;99.90
12123;DHT22;6125;59.628;17.852;2023-02-08T00:33:32;3.20;99.90
12123;DHT22;6125;59.628;17.852;2023-02-08T00:36:01;3.30;99.90
12123;DHT22;6125;59.628;17.852;2023-02-08T00:38:30;3.30;99.90
12123;DHT22;6125;59.628;17.852;2023-02-08T00:41:04;3.30;99.90
12123;DHT22;6125;59.628;17.852;2023-02-08T00:43:36;3.30;99.90
12123;DHT22;6125;59.628;17.852;2023-02-08T00:46:04;3.20;99.90
12123;DHT22;6125;59.628;17.852;2023-02-08T00:48:32;3.20;99.90
12123;DHT22;6125;59.628;17.852;2023-02-08T00:51:02;3.20;99.90
12123;DHT22;6125;59.628;17.852;2023-02-08T00:53:35;3.20;99.90
12123;DHT22;6125;59.628;17.852;2023-02-08T00:56:06;3.20;99.90
12123;DHT22;6125;59.628;17.852;2023-02-08T00:58:34;3.20;99.90
12123;DHT22;6125;59.628;17.852;2023-02-08T01:01:03;3.20;99.90
12123;DHT22;6125;59.628;17.852;2023-02-08T01:03:32;3.20;99.90
12123;DHT22;6125;59.628;17.852;2023-02-08T01:06:00;3.20;99.90
12123;DHT22;6125;59.628;17.852;2023-02-08T01:08:28;3.20;99.90
12123;DHT22;6125;59.628;17.852;2023-02-08T01:11:04;3.20;99.90
12123;DHT22;6125;59.628;17.852;2023-02-08T01:13:32;3.20;99.90
12123;DHT22;6125;59.628;17.852;2023-02-08T01:16:05;3.20;99.90
12123;DHT22;6125;59.628;17.852;2023-02-08T01:18:33;3.20;99.90
12123;DHT22;6125;59.628;17.852;2023-02-08T01:21:05;3.20;99.90
12123;DHT22;6125;59.628;17.852;2023-02-08T01:23:33;3.20;99.90
12123;DHT22;6125;59.628;17.852;2023-02-08T01:26:05;3.20;99.90
12123;DHT22;6125;59.628;17.852;2023-02-08T01:28:33;3.20;99.90
12123;DHT22;6125;59.628;17.852;2023-02-08T01:31:05;3.20;99.90
12123;DHT22;6125;59.628;17.852;2023-02-08T01:33:33;3.20;99.90
12123;DHT22;6125;59.628;17.852;2023-02-08T01:36:01;3.20;99.90
12123;DHT22;6125;59.628;17.852;2023-02-08T01:38:28;3.30;99.90
12123;DHT22;6125;59.628;17.852;2023-02-08T01:40:57;3.30;99.90
12123;DHT22;6125;59.628;17.852;2023-02-08T01:43:30;3.20;99.90
12123;DHT22;6125;59.628;17.852;2023-02-08T01:45:57;3.30;99.90
12123;DHT22;6125;59.628;17.852;2023-02-08T01:48:27;3.30;99.90
12123;DHT22;6125;59.628;17.852;2023-02-08T01:51:01;3.30;99.90
12123;DHT22;6125;59.628;17.852;2023-02-08T01:53:31;3.20;99.90
12123;DHT22;6125;59.628;17.852;2023-02-08T01:56:01;3.30;99.90
12123;DHT22;6125;59.628;17.852;2023-02-08T01:58:32;3.30;99.90
12123;DHT22;6125;59.628;17.852;2023-02-08T02:01:01;3.30;99.90
12123;DHT22;6125;59.628;17.852;2023-02-08T02:03:29;3.30;99.90
12123;DHT22;6125;59.628;17.852;2023-02-08T02:06:02;3.30;99.90
12123;DHT22;6125;59.628;17.852;2023-02-08T02:08:32;3.30;99.90
12123;DHT22;6125;59.628;17.852;2023-02-08T02:11:01;3.30;99.90
12123;DHT22;6125;59.628;17.852;2023-02-08T02:13:30;3.30;99.90
12123;DHT22;6125;59.628;17.852;2023-02-08T02:15:58;3.30;99.90
12123;DHT22;6125;59.628;17.852;2023-02-08T02:18:28;3.30;99.90
12123;DHT22;6125;59.628;17.852;2023-02-08T02:21:10;3.30;99.90
12123;DHT22;6125;59.628;17.852;2023-02-08T02:24:17;3.30;99.90
12123;DHT22;6125;59.628;17.852;2023-02-08T02:27:13;3.30;99.90
12123;DHT22;6125;59.628;17.852;2023-02-08T02:35:45;3.40;99.90
12123;DHT22;6125;59.628;17.852;2023-02-08T02:38:25;3.40;99.90
12123;DHT22;6125;59.628;17.852;2023-02-08T02:40:59;3.40;99.90
12123;DHT22;6125;59.628;17.852;2023-02-08T02:43:33;3.40;99.90
12123;DHT22;6125;59.628;17.852;2023-02-08T02:46:17;3.40;99.90
12123;DHT22;6125;59.628;17.852;2023-02-08T02:48:53;3.40;99.90
12123;DHT22;6125;59.628;17.852;2023-02-08T02:51:26;3.40;99.90
12123;DHT22;6125;59.628;17.852;2023-02-08T02:53:57;3.40;99.90
12123;DHT22;6125;59.628;17.852;2023-02-08T02:56:30;3.40;99.90
12123;DHT22;6125;59.628;17.852;2023-02-08T02:59:02;3.40;99.90
12123;DHT22;6125;59.628;17.852;2023-02-08T03:01:33;3.40;99.90
12123;DHT22;6125;59.628;17.852;2023-02-08T03:07:05;3.40;99.90
12123;DHT22;6125;59.628;17.852;2023-02-08T03:09:50;3.30;99.90
12123;DHT22;6125;59.628;17.852;2023-02-08T03:12:29;3.40;99.90
12123;DHT22;6125;59.628;17.852;2023-02-08T03:15:05;3.40;99.90
12123;DHT22;6125;59.628;17.852;2023-02-08T03:17:49;3.40;99.90
12123;DHT22;6125;59.628;17.852;2023-02-08T03:20:24;3.40;99.90
12123;DHT22;6125;59.628;17.852;2023-02-08T03:23:00;3.40;99.90
12123;DHT22;6125;59.628;17.852;2023-02-08T03:25:33;3.40;99.90
12123;DHT22;6125;59.628;17.852;2023-02-08T03:28:09;3.40;99.90
12123;DHT22;6125;59.628;17.852;2023-02-08T03:30:49;3.40;99.90
12123;DHT22;6125;59.628;17.852;2023-02-08T03:33:24;3.40;99.90
12123;DHT22;6125;59.628;17.852;2023-02-08T03:36:01;3.40;99.90
12123;DHT22;6125;59.628;17.852;2023-02-08T03:38:32;3.40;99.90
12123;DHT22;6125;59.628;17.852;2023-02-08T03:41:02;3.40;99.90
12123;DHT22;6125;59.628;17.852;2023-02-08T03:43:33;3.40;99.90
12123;DHT22;6125;59.628;17.852;2023-02-08T03:46:05;3.40;99.90
12123;DHT22;6125;59.628;17.852;2023-02-08T03:48:34;3.40;99.90
12123;DHT22;6125;59.628;17.852;2023-02-08T03:51:03;3.40;99.90
12123;DHT22;6125;59.628;17.852;2023-02-08T03:53:33;3.40;99.90
12123;DHT22;6125;59.628;17.852;2023-02-08T03:56:08;3.50;99.90
12123;DHT22;6125;59.628;17.852;2023-02-08T03:58:42;3.50;99.90
12123;DHT22;6125;59.628;17.852;2023-02-08T04:01:15;3.40;99.90
12123;DHT22;6125;59.628;17.852;2023-02-08T04:03:45;3.50;99.90
12123;DHT22;6125;59.628;17.852;2023-02-08T04:06:15;3.50;99.90
12123;DHT22;6125;59.628;17.852;2023-02-08T04:08:45;3.50;99.90
12123;DHT22;6125;59.628;17.852;2023-02-08T04:11:12;3.50;99.90
12123;DHT22;6125;59.628;17.852;2023-02-08T04:13:42;3.50;99.90
12123;DHT22;6125;59.628;17.852;2023-02-08T04:16:09;3.50;99.90
12123;DHT22;6125;59.628;17.852;2023-02-08T04:18:37;3.50;99.90
12123;DHT22;6125;59.628;17.852;2023-02-08T04:21:05;3.50;99.90
12123;DHT22;6125;59.628;17.852;2023-02-08T04:23:33;3.50;99.90
12123;DHT22;6125;59.628;17.852;2023-02-08T04:26:02;3.60;99.90
12123;DHT22;6125;59.628;17.852;2023-02-08T04:28:29;3.50;99.90
12123;DHT22;6125;59.628;17.852;2023-02-08T04:30:56;3.50;99.90
12123;DHT22;6125;59.628;17.852;2023-02-08T04:33:23;3.50;99.90
12123;DHT22;6125;59.628;17.852;2023-02-08T04:35:50;3.50;99.90
12123;DHT22;6125;59.628;17.852;2023-02-08T04:38:18;3.50;99.90
12123;DHT22;6125;59.628;17.852;2023-02-08T04:40:48;3.50;99.90
12123;DHT22;6125;59.628;17.852;2023-02-08T04:43:17;3.50;99.90
12123;DHT22;6125;59.628;17.852;2023-02-08T04:45:44;3.50;99.90
12123;DHT22;6125;59.628;17.852;2023-02-08T04:48:11;3.50;99.90
12123;DHT22;6125;59.628;17.852;2023-02-08T04:50:38;3.60;99.90
12123;DHT22;6125;59.628;17.852;2023-02-08T04:53:05;3.60;99.90
12123;DHT22;6125;59.628;17.852;2023-02-08T04:55:32;3.60;99.90
12123;DHT22;6125;59.628;17.852;2023-02-08T04:58:01;3.60;99.90
12123;DHT22;6125;59.628;17.852;2023-02-08T05:00:29;3.60;99.90
12123;DHT22;6125;59.628;17.852;2023-02-08T05:02:57;3.60;99.90
12123;DHT22;6125;59.628;17.852;2023-02-08T05:05:25;3.60;99.90
12123;DHT22;6125;59.628;17.852;2023-02-08T05:07:52;3.60;99.90
12123;DHT22;6125;59.628;17.852;2023-02-08T05:10:19;3.60;99.90
12123;DHT22;6125;59.628;17.852;2023-02-08T05:12:47;3.60;99.90
12123;DHT22;6125;59.628;17.852;2023-02-08T05:15:15;3.60;99.90
12123;DHT22;6125;59.628;17.852;2023-02-08T05:17:49;3.60;99.90
12123;DHT22;6125;59.628;17.852;2023-02-08T05:20:16;3.60;99.90
12123;DHT22;6125;59.628;17.852;2023-02-08T05:22:43;3.60;99.90
12123;DHT22;6125;59.628;17.852;2023-02-08T05:25:10;3.60;99.90
12123;DHT22;6125;59.628;17.852;2023-02-08T05:27:38;3.60;99.90
12123;DHT22;6125;59.628;17.852;2023-02-08T05:30:10;3.60;99.90
12123;DHT22;6125;59.628;17.852;2023-02-08T05:32:37;3.60;99.90
12123;DHT22;6125;59.628;17.852;2023-02-08T05:35:07;3.60;99.90
12123;DHT22;6125;59.628;17.852;2023-02-08T05:37:39;3.60;99.90
12123;DHT22;6125;59.628;17.852;2023-02-08T05:40:07;3.60;99.90
12123;DHT22;6125;59.628;17.852;2023-02-08T05:42:35;3.70;99.90
12123;DHT22;6125;59.628;17.852;2023-02-08T05:45:02;3.60;99.90
12123;DHT22;6125;59.628;17.852;2023-02-08T05:47:30;3.60;99.90
12123;DHT22;6125;59.628;17.852;2023-02-08T05:49:57;3.60;99.90
12123;DHT22;6125;59.628;17.852;2023-02-08T05:52:26;3.60;99.90
12123;DHT22;6125;59.628;17.852;2023-02-08T05:54:55;3.70;99.90
12123;DHT22;6125;59.628;17.852;2023-02-08T05:57:23;3.70;99.90
12123;DHT22;6125;59.628;17.852;2023-02-08T05:59:50;3.70;99.90
12123;DHT22;6125;59.628;17.852;2023-02-08T06:02:17;3.70;99.90
12123;DHT22;6125;59.628;17.852;2023-02-08T06:04:44;3.70;99.90
12123;DHT22;6125;59.628;17.852;2023-02-08T06:07:11;3.70;99.90
12123;DHT22;6125;59.628;17.852;2023-02-08T06:09:44;3.60;99.90
12123;DHT22;6125;59.628;17.852;2023-02-08T06:12:11;3.60;99.90
12123;DHT22;6125;59.628;17.852;2023-02-08T06:14:41;3.60;99.90
12123;DHT22;6125;59.628;17.852;2023-02-08T06:17:09;3.70;99.90
12123;DHT22;6125;59.628;17.852;2023-02-08T06:19:38;3.70;99.90
12123;DHT22;6125;59.628;17.852;2023-02-08T06:22:05;3.70;99.90
12123;DHT22;6125;59.628;17.852;2023-02-08T06:24:34;3.70;99.90
12123;DHT22;6125;59.628;17.852;2023-02-08T06:27:02;3.70;99.90
12123;DHT22;6125;59.628;17.852;2023-02-08T06:29:29;3.70;99.90
12123;DHT22;6125;59.628;17.852;2023-02-08T06:31:56;3.70;99.90
12123;DHT22;6125;59.628;17.852;2023-02-08T06:34:24;3.70;99.90
12123;DHT22;6125;59.628;17.852;2023-02-08T06:36:51;3.70;99.90
12123;DHT22;6125;59.628;17.852;2023-02-08T06:39:19;3.70;99.90
12123;DHT22;6125;59.628;17.852;2023-02-08T06:41:48;3.70;99.90
12123;DHT22;6125;59.628;17.852;2023-02-08T06:44:17;3.80;99.90
12123;DHT22;6125;59.628;17.852;2023-02-08T06:46:44;3.80;99.90
12123;DHT22;6125;59.628;17.852;2023-02-08T06:49:11;3.80;99.90
12123;DHT22;6125;59.628;17.852;2023-02-08T06:51:38;3.80;99.90
12123;DHT22;6125;59.628;17.852;2023-02-08T06:54:08;3.80;99.90
12123;DHT22;6125;59.628;17.852;2023-02-08T06:56:35;3.80;99.90
12123;DHT22;6125;59.628;17.852;2023-02-08T06:59:05;3.90;99.90
12123;DHT22;6125;59.628;17.852;2023-02-08T07:01:34;3.90;99.90
12123;DHT22;6125;59.628;17.852;2023-02-08T07:04:01;3.90;99.90
12123;DHT22;6125;59.628;17.852;2023-02-08T07:06:32;3.90;99.90
12123;DHT22;6125;59.628;17.852;2023-02-08T07:08:59;4.00;99.90
12123;DHT22;6125;59.628;17.852;2023-02-08T07:11:28;4.00;99.90
12123;DHT22;6125;59.628;17.852;2023-02-08T07:13:55;4.00;99.90
12123;DHT22;6125;59.628;17.852;2023-02-08T07:16:24;4.00;99.90
12123;DHT22;6125;59.628;17.852;2023-02-08T07:18:54;4.00;99.90
12123;DHT22;6125;59.628;17.852;2023-02-08T07:21:21;4.10;99.90
12123;DHT22;6125;59.628;17.852;2023-02-08T07:23:49;4.10;99.90
12123;DHT22;6125;59.628;17.852;2023-02-08T07:26:18;4.10;99.90
12123;DHT22;6125;59.628;17.852;2023-02-08T07:28:46;4.10;99.90
12123;DHT22;6125;59.628;17.852;2023-02-08T07:31:16;4.10;99.90
12123;DHT22;6125;59.628;17.852;2023-02-08T07:33:44;4.20;99.90
12123;DHT22;6125;59.628;17.852;2023-02-08T07:36:17;4.20;99.90
12123;DHT22;6125;59.628;17.852;2023-02-08T07:38:45;4.20;99.90
12123;DHT22;6125;59.628;17.852;2023-02-08T07:41:14;4.20;99.90
12123;DHT22;6125;59.628;17.852;2023-02-08T07:43:42;4.20;99.90
12123;DHT22;6125;59.628;17.852;2023-02-08T07:46:13;4.20;99.90
12123;DHT22;6125;59.628;17.852;2023-02-08T07:48:40;4.30;99.90
12123;DHT22;6125;59.628;17.852;2023-02-08T07:51:08;4.30;99.90
12123;DHT22;6125;59.628;17.852;2023-02-08T07:53:37;4.30;99.90
12123;DHT22;6125;59.628;17.852;2023-02-08T07:56:05;4.30;99.90
12123;DHT22;6125;59.628;17.852;2023-02-08T07:58:32;4.40;99.90
12123;DHT22;6125;59.628;17.852;2023-02-08T08:01:03;4.40;99.90
12123;DHT22;6125;59.628;17.852;2023-02-08T08:03:33;4.40;99.90
12123;DHT22;6125;59.628;17.852;2023-02-08T08:06:02;4.40;99.90
12123;DHT22;6125;59.628;17.852;2023-02-08T08:08:29;4.40;99.90
12123;DHT22;6125;59.628;17.852;2023-02-08T08:10:58;4.50;99.90
12123;DHT22;6125;59.628;17.852;2023-02-08T08:13:25;4.50;99.90
12123;DHT22;6125;59.628;17.852;2023-02-08T08:15:52;4.50;99.90
12123;DHT22;6125;59.628;17.852;2023-02-08T08:18:19;4.50;99.90
12123;DHT22;6125;59.628;17.852;2023-02-08T08:20:46;4.50;99.90
12123;DHT22;6125;59.628;17.852;2023-02-08T08:23:14;4.50;99.90
12123;DHT22;6125;59.628;17.852;2023-02-08T08:25:44;4.60;99.90
12123;DHT22;6125;59.628;17.852;2023-02-08T08:28:12;4.60;99.90
12123;DHT22;6125;59.628;17.852;2023-02-08T08:30:42;4.60;99.90
12123;DHT22;6125;59.628;17.852;2023-02-08T08:33:09;4.60;99.90
12123;DHT22;6125;59.628;17.852;2023-02-08T08:35:36;4.60;99.90
12123;DHT22;6125;59.628;17.852;2023-02-08T08:38:03;4.70;99.90
12123;DHT22;6125;59.628;17.852;2023-02-08T08:40:30;4.70;99.90
12123;DHT22;6125;59.628;17.852;2023-02-08T08:42:57;4.70;99.90
12123;DHT22;6125;59.628;17.852;2023-02-08T08:45:26;4.70;99.90
12123;DHT22;6125;59.628;17.852;2023-02-08T08:47:56;4.70;99.90
12123;DHT22;6125;59.628;17.852;2023-02-08T08:50:26;4.70;99.90
12123;DHT22;6125;59.628;17.852;2023-02-08T08:52:57;4.80;99.90
12123;DHT22;6125;59.628;17.852;2023-02-08T08:55:24;4.80;99.90
12123;DHT22;6125;59.628;17.852;2023-02-08T08:57:52;4.80;99.90
12123;DHT22;6125;59.628;17.852;2023-02-08T09:00:21;4.90;99.90
12123;DHT22;6125;59.628;17.852;2023-02-08T09:02:55;5.00;99.90
12123;DHT22;6125;59.628;17.852;2023-02-08T09:05:24;4.90;99.90
12123;DHT22;6125;59.628;17.852;2023-02-08T09:07:51;5.00;99.90
12123;DHT22;6125;59.628;17.852;2023-02-08T09:10:18;5.00;99.90
12123;DHT22;6125;59.628;17.852;2023-02-08T09:12:47;5.00;99.90
12123;DHT22;6125;59.628;17.852;2023-02-08T09:15:15;5.10;99.90
12123;DHT22;6125;59.628;17.852;2023-02-08T09:17:42;5.10;99.90
12123;DHT22;6125;59.628;17.852;2023-02-08T09:20:11;5.10;99.90
12123;DHT22;6125;59.628;17.852;2023-02-08T09:22:39;5.20;99.90
12123;DHT22;6125;59.628;17.852;2023-02-08T09:25:06;5.10;99.90
12123;DHT22;6125;59.628;17.852;2023-02-08T09:27:34;5.20;99.90
12123;DHT22;6125;59.628;17.852;2023-02-08T09:30:05;5.20;99.90
12123;DHT22;6125;59.628;17.852;2023-02-08T09:32:33;5.20;99.90
12123;DHT22;6125;59.628;17.852;2023-02-08T09:35:01;5.20;99.90
12123;DHT22;6125;59.628;17.852;2023-02-08T09:37:37;5.20;99.90
12123;DHT22;6125;59.628;17.852;2023-02-08T09:40:05;5.20;99.90
12123;DHT22;6125;59.628;17.852;2023-02-08T09:42:38;5.20;99.90
12123;DHT22;6125;59.628;17.852;2023-02-08T09:45:23;5.20;99.90
12123;DHT22;6125;59.628;17.852;2023-02-08T09:47:58;5.20;99.90
12123;DHT22;6125;59.628;17.852;2023-02-08T09:50:33;5.20;99.90
12123;DHT22;6125;59.628;17.852;2023-02-08T09:53:12;5.20;99.90
12123;DHT22;6125;59.628;17.852;2023-02-08T09:55:42;5.20;99.90
12123;DHT22;6125;59.628;17.852;2023-02-08T09:58:18;5.20;99.90
12123;DHT22;6125;59.628;17.852;2023-02-08T10:00:49;5.20;99.90
12123;DHT22;6125;59.628;17.852;2023-02-08T10:03:29;5.20;99.90
12123;DHT22;6125;59.628;17.852;2023-02-08T10:05:56;5.20;99.90
12123;DHT22;6125;59.628;17.852;2023-02-08T10:08:26;5.20;99.90
12123;DHT22;6125;59.628;17.852;2023-02-08T10:10:55;5.20;99.90
12123;DHT22;6125;59.628;17.852;2023-02-08T10:13:38;5.20;99.90
12123;DHT22;6125;59.628;17.852;2023-02-08T10:16:17;5.20;99.90
12123;DHT22;6125;59.628;17.852;2023-02-08T10:18:54;5.30;99.90
12123;DHT22;6125;59.628;17.852;2023-02-08T10:21:41;5.30;99.90
12123;DHT22;6125;59.628;17.852;2023-02-08T10:24:25;5.40;99.90
12123;DHT22;6125;59.628;17.852;2023-02-08T10:27:04;5.40;99.90
12123;DHT22;6125;59.628;17.852;2023-02-08T10:29:56;5.40;99.90
12123;DHT22;6125;59.628;17.852;2023-02-08T10:32:35;5.40;99.90
12123;DHT22;6125;59.628;17.852;2023-02-08T10:35:11;5.40;99.90
12123;DHT22;6125;59.628;17.852;2023-02-08T10:37:40;5.40;99.90
12123;DHT22;6125;59.628;17.852;2023-02-08T10:40:28;5.40;99.90
12123;DHT22;6125;59.628;17.852;2023-02-08T10:43:02;5.40;99.90
12123;DHT22;6125;59.628;17.852;2023-02-08T10:45:37;5.40;99.90
12123;DHT22;6125;59.628;17.852;2023-02-08T10:48:11;5.40;99.90
12123;DHT22;6125;59.628;17.852;2023-02-08T10:50:42;5.40;99.90
12123;DHT22;6125;59.628;17.852;2023-02-08T10:53:14;5.40;99.90
12123;DHT22;6125;59.628;17.852;2023-02-08T10:55:47;5.40;99.90
12123;DHT22;6125;59.628;17.852;2023-02-08T10:58:25;5.40;99.90
12123;DHT22;6125;59.628;17.852;2023-02-08T11:00:53;5.40;99.90
12123;DHT22;6125;59.628;17.852;2023-02-08T11:03:24;5.40;99.90
12123;DHT22;6125;59.628;17.852;2023-02-08T11:05:53;5.40;99.90
12123;DHT22;6125;59.628;17.852;2023-02-08T11:08:23;5.40;99.90
12123;DHT22;6125;59.628;17.852;2023-02-08T11:10:59;5.40;99.90
12123;DHT22;6125;59.628;17.852;2023-02-08T11:13:35;5.50;99.90
12123;DHT22;6125;59.628;17.852;2023-02-08T11:16:06;5.40;99.90
12123;DHT22;6125;59.628;17.852;2023-02-08T11:18:37;5.50;99.90
12123;DHT22;6125;59.628;17.852;2023-02-08T11:21:21;5.50;99.90
12123;DHT22;6125;59.628;17.852;2023-02-08T11:23:51;5.50;99.90
12123;DHT22;6125;59.628;17.852;2023-02-08T11:26:30;5.50;99.90
12123;DHT22;6125;59.628;17.852;2023-02-08T11:29:04;5.60;99.90
12123;DHT22;6125;59.628;17.852;2023-02-08T11:31:37;5.60;99.90
12123;DHT22;6125;59.628;17.852;2023-02-08T11:34:07;5.60;99.90
12123;DHT22;6125;59.628;17.852;2023-02-08T11:36:36;5.60;99.90
12123;DHT22;6125;59.628;17.852;2023-02-08T11:39:16;5.70;99.90
12123;DHT22;6125;59.628;17.852;2023-02-08T11:41:48;5.70;99.90
12123;DHT22;6125;59.628;17.852;2023-02-08T11:44:21;5.70;99.90
12123;DHT22;6125;59.628;17.852;2023-02-08T11:46:51;5.80;99.90
12123;DHT22;6125;59.628;17.852;2023-02-08T11:49:23;5.80;99.90
12123;DHT22;6125;59.628;17.852;2023-02-08T11:51:53;5.80;99.90
12123;DHT22;6125;59.628;17.852;2023-02-08T11:54:32;5.80;99.90
12123;DHT22;6125;59.628;17.852;2023-02-08T11:57:08;5.90;99.90
12123;DHT22;6125;59.628;17.852;2023-02-08T11:59:36;5.90;99.90
12123;DHT22;6125;59.628;17.852;2023-02-08T12:02:26;5.90;99.90
12123;DHT22;6125;59.628;17.852;2023-02-08T12:04:56;6.00;99.90
12123;DHT22;6125;59.628;17.852;2023-02-08T12:07:45;6.00;99.90
12123;DHT22;6125;59.628;17.852;2023-02-08T12:10:30;6.10;99.90
12123;DHT22;6125;59.628;17.852;2023-02-08T12:16:01;6.10;99.90
12123;DHT22;6125;59.628;17.852;2023-02-08T12:18:55;6.20;99.90
12123;DHT22;6125;59.628;17.852;2023-02-08T12:21:27;6.20;99.90
12123;DHT22;6125;59.628;17.852;2023-02-08T12:24:01;6.20;99.90
12123;DHT22;6125;59.628;17.852;2023-02-08T12:27:00;6.20;99.90
12123;DHT22;6125;59.628;17.852;2023-02-08T12:29:40;6.20;99.90
12123;DHT22;6125;59.628;17.852;2023-02-08T12:32:31;6.10;99.90
12123;DHT22;6125;59.628;17.852;2023-02-08T12:37:59;6.10;99.90
12123;DHT22;6125;59.628;17.852;2023-02-08T12:40:53;6.00;99.90
12123;DHT22;6125;59.628;17.852;2023-02-08T12:43:33;6.00;99.90
12123;DHT22;6125;59.628;17.852;2023-02-08T12:46:20;6.00;99.90
12123;DHT22;6125;59.628;17.852;2023-02-08T12:49:05;6.00;99.90
12123;DHT22;6125;59.628;17.852;2023-02-08T12:51:43;6.00;99.90
12123;DHT22;6125;59.628;17.852;2023-02-08T12:54:16;6.00;99.90
12123;DHT22;6125;59.628;17.852;2023-02-08T12:56:53;6.00;99.90
12123;DHT22;6125;59.628;17.852;2023-02-08T12:59:28;5.90;99.90
12123;DHT22;6125;59.628;17.852;2023-02-08T13:02:03;5.90;99.90
12123;DHT22;6125;59.628;17.852;2023-02-08T13:04:37;5.90;99.90
12123;DHT22;6125;59.628;17.852;2023-02-08T13:07:11;5.90;99.90
12123;DHT22;6125;59.628;17.852;2023-02-08T13:09:44;5.90;99.90
12123;DHT22;6125;59.628;17.852;2023-02-08T13:12:15;5.90;99.90
12123;DHT22;6125;59.628;17.852;2023-02-08T13:14:48;5.90;99.90
12123;DHT22;6125;59.628;17.852;2023-02-08T13:17:21;5.90;99.90
12123;DHT22;6125;59.628;17.852;2023-02-08T13:19:56;5.90;99.90
12123;DHT22;6125;59.628;17.852;2023-02-08T13:22:24;5.90;99.90
12123;DHT22;6125;59.628;17.852;2023-02-08T13:24:53;6.00;99.90
12123;DHT22;6125;59.628;17.852;2023-02-08T13:27:24;6.00;99.90
12123;DHT22;6125;59.628;17.852;2023-02-08T13:29:52;6.00;99.90
12123;DHT22;6125;59.628;17.852;2023-02-08T13:32:24;6.00;99.90
12123;DHT22;6125;59.628;17.852;2023-02-08T13:34:59;6.00;99.90
12123;DHT22;6125;59.628;17.852;2023-02-08T13:37:29;6.00;99.90
12123;DHT22;6125;59.628;17.852;2023-02-08T13:40:02;6.00;99.90
12123;DHT22;6125;59.628;17.852;2023-02-08T13:42:34;6.00;99.90
12123;DHT22;6125;59.628;17.852;2023-02-08T13:45:06;6.00;99.90
12123;DHT22;6125;59.628;17.852;2023-02-08T13:47:42;6.00;99.90
12123;DHT22;6125;59.628;17.852;2023-02-08T13:50:39;6.00;99.90
12123;DHT22;6125;59.628;17.852;2023-02-08T13:53:08;6.00;99.90
12123;DHT22;6125;59.628;17.852;2023-02-08T13:55:57;6.00;99.90
12123;DHT22;6125;59.628;17.852;2023-02-08T14:01:34;6.00;99.90
12123;DHT22;6125;59.628;17.852;2023-02-08T14:04:35;6.00;99.90
12123;DHT22;6125;59.628;17.852;2023-02-08T14:09:56;6.00;99.90
12123;DHT22;6125;59.628;17.852;2023-02-08T14:12:28;6.00;99.90
12123;DHT22;6125;59.628;17.852;2023-02-08T14:17:47;6.00;99.90
12123;DHT22;6125;59.628;17.852;2023-02-08T14:20:23;5.90;99.90
12123;DHT22;6125;59.628;17.852;2023-02-08T14:22:54;6.00;99.90
12123;DHT22;6125;59.628;17.852;2023-02-08T14:25:24;6.00;99.90
12123;DHT22;6125;59.628;17.852;2023-02-08T14:27:53;6.00;99.90
12123;DHT22;6125;59.628;17.852;2023-02-08T14:30:25;6.00;99.90
12123;DHT22;6125;59.628;17.852;2023-02-08T14:33:10;6.00;99.90
12123;DHT22;6125;59.628;17.852;2023-02-08T14:35:51;6.00;99.90
12123;DHT22;6125;59.628;17.852;2023-02-08T14:38:33;6.00;99.90
12123;DHT22;6125;59.628;17.852;2023-02-08T14:41:03;6.00;99.90
12123;DHT22;6125;59.628;17.852;2023-02-08T14:43:32;6.00;99.90
12123;DHT22;6125;59.628;17.852;2023-02-08T14:49:08;6.10;99.90
12123;DHT22;6125;59.628;17.852;2023-02-08T14:51:40;6.00;99.90
12123;DHT22;6125;59.628;17.852;2023-02-08T14:54:18;6.00;99.90
12123;DHT22;6125;59.628;17.852;2023-02-08T14:56:53;6.00;99.90
12123;DHT22;6125;59.628;17.852;2023-02-08T14:59:26;6.00;99.90
12123;DHT22;6125;59.628;17.852;2023-02-08T15:01:57;6.00;99.90
12123;DHT22;6125;59.628;17.852;2023-02-08T15:04:27;6.00;99.90
12123;DHT22;6125;59.628;17.852;2023-02-08T15:09:49;6.00;99.90
12123;DHT22;6125;59.628;17.852;2023-02-08T15:12:23;6.00;99.90
12123;DHT22;6125;59.628;17.852;2023-02-08T15:14:53;6.00;99.90
12123;DHT22;6125;59.628;17.852;2023-02-08T15:17:31;6.00;99.90
12123;DHT22;6125;59.628;17.852;2023-02-08T15:20:00;5.90;99.90
12123;DHT22;6125;59.628;17.852;2023-02-08T15:22:34;5.90;99.90
12123;DHT22;6125;59.628;17.852;2023-02-08T15:25:19;5.90;99.90
12123;DHT22;6125;59.628;17.852;2023-02-08T15:27:48;5.80;99.90
12123;DHT22;6125;59.628;17.852;2023-02-08T15:30:24;5.80;99.90
12123;DHT22;6125;59.628;17.852;2023-02-08T15:32:53;5.80;99.90
12123;DHT22;6125;59.628;17.852;2023-02-08T15:35:21;5.70;99.90
12123;DHT22;6125;59.628;17.852;2023-02-08T15:37:52;5.70;99.90
12123;DHT22;6125;59.628;17.852;2023-02-08T15:40:27;5.60;99.90
12123;DHT22;6125;59.628;17.852;2023-02-08T15:43:02;5.60;99.90
12123;DHT22;6125;59.628;17.852;2023-02-08T15:45:29;5.60;99.90
12123;DHT22;6125;59.628;17.852;2023-02-08T15:47:58;5.50;99.90
12123;DHT22;6125;59.628;17.852;2023-02-08T15:50:26;5.50;99.90
12123;DHT22;6125;59.628;17.852;2023-02-08T15:52:59;5.50;99.90
12123;DHT22;6125;59.628;17.852;2023-02-08T15:55:31;5.50;99.90
12123;DHT22;6125;59.628;17.852;2023-02-08T15:58:04;5.50;99.90
12123;DHT22;6125;59.628;17.852;2023-02-08T16:00:41;5.40;99.90
12123;DHT22;6125;59.628;17.852;2023-02-08T16:03:16;5.40;99.90
12123;DHT22;6125;59.628;17.852;2023-02-08T16:05:48;5.40;99.90
12123;DHT22;6125;59.628;17.852;2023-02-08T16:08:21;5.30;99.90
12123;DHT22;6125;59.628;17.852;2023-02-08T16:10:52;5.30;99.90
12123;DHT22;6125;59.628;17.852;2023-02-08T16:13:23;5.30;99.90
12123;DHT22;6125;59.628;17.852;2023-02-08T16:15:52;5.30;99.90
12123;DHT22;6125;59.628;17.852;2023-02-08T16:18:34;5.30;99.90
12123;DHT22;6125;59.628;17.852;2023-02-08T16:21:06;5.30;99.90
12123;DHT22;6125;59.628;17.852;2023-02-08T16:23:37;5.30;99.90
12123;DHT22;6125;59.628;17.852;2023-02-08T16:26:17;5.30;99.90
12123;DHT22;6125;59.628;17.852;2023-02-08T16:28:55;5.20;99.90
12123;DHT22;6125;59.628;17.852;2023-02-08T16:31:36;5.20;99.90
12123;DHT22;6125;59.628;17.852;2023-02-08T16:34:06;5.20;99.90
12123;DHT22;6125;59.628;17.852;2023-02-08T16:36:44;5.20;99.90
12123;DHT22;6125;59.628;17.852;2023-02-08T16:42:19;5.10;99.90
12123;DHT22;6125;59.628;17.852;2023-02-08T16:45:11;5.10;99.90
12123;DHT22;6125;59.628;17.852;2023-02-08T16:47:44;5.10;99.90